Palmer Municipal Airport
PAAQ : now visible

Airfield :











YOU CAN JOIN US ON...

 
LOGIN :

Register | Disclaimer

   EN    FR    IT 

 









Legend :    VFR   Marginal VFR   IFR   Intensive IFR   Very Intensive IFR
Visi :
Ceiling :
>= 8 km
>= 3000ft
5 to 8 km
1000 to 3000 ft
1500m to 5 km
500 to 1000 ft
800 to 1500m
200 to 500 ft
< 800m
< 200 ft
Symbols :   Thunderstorms  Fog  Heavy snow  Heavy precipitations  Wind > 20 kt






- Airport Elevation : 242 ft
- IATA code : PAQ


PAAQ - Palmer Municipal

CURRENT METAR :
  • 151753Z 11003KT 3SM -SN BR FEW005 BKN035 OVC042 M03/M03 A2919 RMK AO2 SLP888 P0001 60002 T10281033 10006 21028 51036

EXPIRED METARs :
  • 151749Z 13003KT 3SM -SN BR FEW005 BKN035 OVC042 M03/M03 A2918 RMK AO2 P0001
  • 151733Z 00000KT 2SM -SN BR FEW005 BKN023 OVC041 M03/M03 A2917 RMK AO2 P0001 T10281033
  • 151653Z 00000KT 1 1/2SM -SN BR OVC019 M02/M03 A2913 RMK AO2 SLP867 P0001 T10221033
  • 151628Z AUTO 00000KT 1 1/2SM -SN BR OVC019 M02/M04 A2911 RMK AO2 P0000 T10221039 TSNO
  • 151615Z AUTO 35003KT 2 1/2SM -SN BR OVC027 M02/M04 A2910 RMK AO2 P0000 T10221039 TSNO
  • 151553Z AUTO 00000KT 3SM -SN BR OVC026 M02/M04 A2908 RMK AO2 SNB21 SLP850 P0000 T10221044 TSNO
  • 151537Z AUTO 00000KT 3SM -SN OVC026 M02/M05 A2906 RMK AO2 SNB21 P0000 T10171050 TSNO

TAF PAAQ
Valid from the 15 at 18:00 until the 16 at 18:00 UTC


151726Z 1518/1618 VRB03KT 2SM -SN OVC025
TEMPO 1518/1521 1SM -SN OVC015
FM152300 VRB03KT P6SM SCT025 OVC035
FM160300 VRB04KT P6SM BKN070
FM161600 01012KT P6SM BKN120
PAZA FIR / North America



MET'MAP, your aeronautical weather chart ! - Copyright ORBIFLY December 2007 - Disclaimer

ORBIFLY MET'MAP TEAM :

Programming & Development : Alexandra Zaïnal
Concept & original design : Baudouin d'Aumeries
Assistance for programming : Marc-Olivier Méhu
Technical & hardware support : Manuel Goepfert

Contact : metmap@orbifly.com




SOURCES & CREDITS :

   NOAA       Earth
Advisory